sensor_id;sensor_type;location;lat;lon;timestamp;temperature;humidity
75821;DHT22;64454;51.984;9.838;2023-08-17T00:01:41;21.10;99.90
75821;DHT22;64454;51.984;9.838;2023-08-17T00:04:08;21.10;99.90
75821;DHT22;64454;51.984;9.838;2023-08-17T00:06:35;20.90;99.90
75821;DHT22;64454;51.984;9.838;2023-08-17T00:09:02;20.80;99.90
75821;DHT22;64454;51.984;9.838;2023-08-17T00:11:30;20.60;99.90
75821;DHT22;64454;51.984;9.838;2023-08-17T00:13:58;20.60;99.90
75821;DHT22;64454;51.984;9.838;2023-08-17T00:16:25;20.70;99.90
75821;DHT22;64454;51.984;9.838;2023-08-17T00:18:52;20.70;99.90
75821;DHT22;64454;51.984;9.838;2023-08-17T00:21:20;20.80;99.90
75821;DHT22;64454;51.984;9.838;2023-08-17T00:23:47;20.80;99.90
75821;DHT22;64454;51.984;9.838;2023-08-17T00:26:14;20.80;99.90
75821;DHT22;64454;51.984;9.838;2023-08-17T00:28:41;20.70;99.90
75821;DHT22;64454;51.984;9.838;2023-08-17T00:31:09;20.60;99.90
75821;DHT22;64454;51.984;9.838;2023-08-17T00:33:36;20.50;99.90
75821;DHT22;64454;51.984;9.838;2023-08-17T00:36:04;20.60;99.90
75821;DHT22;64454;51.984;9.838;2023-08-17T00:38:31;20.70;99.90
75821;DHT22;64454;51.984;9.838;2023-08-17T00:40:58;20.80;99.90
75821;DHT22;64454;51.984;9.838;2023-08-17T00:43:25;20.80;99.90
75821;DHT22;64454;51.984;9.838;2023-08-17T00:45:53;20.50;99.90
75821;DHT22;64454;51.984;9.838;2023-08-17T00:48:22;20.30;99.90
75821;DHT22;64454;51.984;9.838;2023-08-17T00:50:50;20.40;99.90
75821;DHT22;64454;51.984;9.838;2023-08-17T00:53:19;20.50;99.90
75821;DHT22;64454;51.984;9.838;2023-08-17T00:55:47;20.60;99.90
75821;DHT22;64454;51.984;9.838;2023-08-17T00:58:14;20.70;99.90
75821;DHT22;64454;51.984;9.838;2023-08-17T01:00:41;20.60;99.90
75821;DHT22;64454;51.984;9.838;2023-08-17T01:03:08;20.70;99.90
75821;DHT22;64454;51.984;9.838;2023-08-17T01:05:36;20.70;99.90
75821;DHT22;64454;51.984;9.838;2023-08-17T01:08:04;20.70;99.90
75821;DHT22;64454;51.984;9.838;2023-08-17T01:10:40;20.70;99.90
75821;DHT22;64454;51.984;9.838;2023-08-17T01:13:15;20.70;99.90
75821;DHT22;64454;51.984;9.838;2023-08-17T01:15:50;20.70;99.90
75821;DHT22;64454;51.984;9.838;2023-08-17T01:18:22;20.70;99.90
75821;DHT22;64454;51.984;9.838;2023-08-17T01:20:54;20.60;99.90
75821;DHT22;64454;51.984;9.838;2023-08-17T01:23:23;20.50;99.90
75821;DHT22;64454;51.984;9.838;2023-08-17T01:25:50;20.60;99.90
75821;DHT22;64454;51.984;9.838;2023-08-17T01:28:19;20.60;99.90
75821;DHT22;64454;51.984;9.838;2023-08-17T01:30:55;20.60;99.90
75821;DHT22;64454;51.984;9.838;2023-08-17T01:33:29;20.50;99.90
75821;DHT22;64454;51.984;9.838;2023-08-17T01:36:05;20.50;99.90
75821;DHT22;64454;51.984;9.838;2023-08-17T01:38:40;20.40;99.90
75821;DHT22;64454;51.984;9.838;2023-08-17T01:41:09;20.30;99.90
75821;DHT22;64454;51.984;9.838;2023-08-17T01:43:39;20.30;99.90
75821;DHT22;64454;51.984;9.838;2023-08-17T01:46:13;20.30;99.90
75821;DHT22;64454;51.984;9.838;2023-08-17T01:48:40;20.30;99.90
75821;DHT22;64454;51.984;9.838;2023-08-17T01:51:07;20.30;99.90
75821;DHT22;64454;51.984;9.838;2023-08-17T01:53:35;20.10;99.90
75821;DHT22;64454;51.984;9.838;2023-08-17T01:56:03;20.10;99.90
75821;DHT22;64454;51.984;9.838;2023-08-17T01:58:30;20.30;99.90
75821;DHT22;64454;51.984;9.838;2023-08-17T02:00:57;20.30;99.90
75821;DHT22;64454;51.984;9.838;2023-08-17T02:03:24;20.20;99.90
75821;DHT22;64454;51.984;9.838;2023-08-17T02:05:51;20.30;99.90
75821;DHT22;64454;51.984;9.838;2023-08-17T02:08:17;20.30;99.90
75821;DHT22;64454;51.984;9.838;2023-08-17T02:10:44;20.40;99.90
75821;DHT22;64454;51.984;9.838;2023-08-17T02:13:13;20.40;99.90
75821;DHT22;64454;51.984;9.838;2023-08-17T02:15:40;20.20;99.90
75821;DHT22;64454;51.984;9.838;2023-08-17T02:18:07;20.20;99.90
75821;DHT22;64454;51.984;9.838;2023-08-17T02:20:35;20.20;99.90
75821;DHT22;64454;51.984;9.838;2023-08-17T02:23:01;20.00;99.90
75821;DHT22;64454;51.984;9.838;2023-08-17T02:25:29;20.00;99.90
75821;DHT22;64454;51.984;9.838;2023-08-17T02:28:00;19.90;99.90
75821;DHT22;64454;51.984;9.838;2023-08-17T02:30:29;19.80;99.90
75821;DHT22;64454;51.984;9.838;2023-08-17T02:32:56;19.70;99.90
75821;DHT22;64454;51.984;9.838;2023-08-17T02:35:23;19.50;99.90
75821;DHT22;64454;51.984;9.838;2023-08-17T02:37:50;19.70;99.90
75821;DHT22;64454;51.984;9.838;2023-08-17T02:40:17;19.70;99.90
75821;DHT22;64454;51.984;9.838;2023-08-17T02:42:44;19.90;99.90
75821;DHT22;64454;51.984;9.838;2023-08-17T02:45:11;19.90;99.90
75821;DHT22;64454;51.984;9.838;2023-08-17T02:47:39;19.80;99.90
75821;DHT22;64454;51.984;9.838;2023-08-17T02:50:07;19.70;99.90
75821;DHT22;64454;51.984;9.838;2023-08-17T02:52:35;19.70;99.90
75821;DHT22;64454;51.984;9.838;2023-08-17T02:55:02;19.80;99.90
75821;DHT22;64454;51.984;9.838;2023-08-17T02:57:29;19.90;99.90
75821;DHT22;64454;51.984;9.838;2023-08-17T02:59:56;19.80;99.90
75821;DHT22;64454;51.984;9.838;2023-08-17T03:02:23;19.80;99.90
75821;DHT22;64454;51.984;9.838;2023-08-17T03:04:51;19.90;99.90
75821;DHT22;64454;51.984;9.838;2023-08-17T03:07:18;20.00;99.90
75821;DHT22;64454;51.984;9.838;2023-08-17T03:09:45;20.10;99.90
75821;DHT22;64454;51.984;9.838;2023-08-17T03:12:11;20.10;99.90
75821;DHT22;64454;51.984;9.838;2023-08-17T03:14:38;20.20;99.90
75821;DHT22;64454;51.984;9.838;2023-08-17T03:17:05;20.20;99.90
75821;DHT22;64454;51.984;9.838;2023-08-17T03:19:32;20.20;99.90
75821;DHT22;64454;51.984;9.838;2023-08-17T03:22:00;20.10;99.90
75821;DHT22;64454;51.984;9.838;2023-08-17T03:24:27;20.20;99.90
75821;DHT22;64454;51.984;9.838;2023-08-17T03:26:54;20.30;99.90
75821;DHT22;64454;51.984;9.838;2023-08-17T03:29:21;20.30;99.90
75821;DHT22;64454;51.984;9.838;2023-08-17T03:31:48;20.30;99.90
75821;DHT22;64454;51.984;9.838;2023-08-17T03:34:17;20.40;99.90
75821;DHT22;64454;51.984;9.838;2023-08-17T03:36:45;20.30;99.90
75821;DHT22;64454;51.984;9.838;2023-08-17T03:39:14;20.40;99.90
75821;DHT22;64454;51.984;9.838;2023-08-17T03:41:43;20.40;99.90
75821;DHT22;64454;51.984;9.838;2023-08-17T03:44:10;20.40;99.90
75821;DHT22;64454;51.984;9.838;2023-08-17T03:46:39;20.50;99.90
75821;DHT22;64454;51.984;9.838;2023-08-17T03:49:06;20.60;99.90
75821;DHT22;64454;51.984;9.838;2023-08-17T03:51:33;20.50;99.90
75821;DHT22;64454;51.984;9.838;2023-08-17T03:54:00;20.60;99.90
75821;DHT22;64454;51.984;9.838;2023-08-17T03:56:28;20.60;99.90
75821;DHT22;64454;51.984;9.838;2023-08-17T03:58:55;20.70;99.90
75821;DHT22;64454;51.984;9.838;2023-08-17T04:01:22;20.60;99.90
75821;DHT22;64454;51.984;9.838;2023-08-17T04:03:49;20.60;99.90
75821;DHT22;64454;51.984;9.838;2023-08-17T04:06:15;20.60;99.90
75821;DHT22;64454;51.984;9.838;2023-08-17T04:08:42;20.60;99.90
75821;DHT22;64454;51.984;9.838;2023-08-17T04:11:09;20.70;99.90
75821;DHT22;64454;51.984;9.838;2023-08-17T04:13:37;20.70;99.90
75821;DHT22;64454;51.984;9.838;2023-08-17T04:16:04;20.80;99.90
75821;DHT22;64454;51.984;9.838;2023-08-17T04:18:31;20.80;99.90
75821;DHT22;64454;51.984;9.838;2023-08-17T04:20:58;20.90;99.90
75821;DHT22;64454;51.984;9.838;2023-08-17T04:23:25;20.80;99.90
75821;DHT22;64454;51.984;9.838;2023-08-17T04:25:53;20.90;99.90
75821;DHT22;64454;51.984;9.838;2023-08-17T04:28:21;20.60;99.90
75821;DHT22;64454;51.984;9.838;2023-08-17T04:30:49;20.60;99.90
75821;DHT22;64454;51.984;9.838;2023-08-17T04:33:16;20.60;99.90
75821;DHT22;64454;51.984;9.838;2023-08-17T04:35:46;20.60;99.90
75821;DHT22;64454;51.984;9.838;2023-08-17T04:38:13;20.60;99.90
75821;DHT22;64454;51.984;9.838;2023-08-17T04:40:40;20.70;99.90
75821;DHT22;64454;51.984;9.838;2023-08-17T04:43:09;20.60;99.90
75821;DHT22;64454;51.984;9.838;2023-08-17T04:45:36;20.60;99.90
75821;DHT22;64454;51.984;9.838;2023-08-17T04:48:05;20.70;99.90
75821;DHT22;64454;51.984;9.838;2023-08-17T04:50:33;20.80;99.90
75821;DHT22;64454;51.984;9.838;2023-08-17T04:52:59;20.90;99.90
75821;DHT22;64454;51.984;9.838;2023-08-17T04:55:26;21.00;99.90
75821;DHT22;64454;51.984;9.838;2023-08-17T04:57:53;21.00;99.90
75821;DHT22;64454;51.984;9.838;2023-08-17T05:00:20;21.00;99.90
75821;DHT22;64454;51.984;9.838;2023-08-17T05:02:53;21.00;99.90
75821;DHT22;64454;51.984;9.838;2023-08-17T05:05:21;21.00;99.90
75821;DHT22;64454;51.984;9.838;2023-08-17T05:07:48;21.00;99.90
75821;DHT22;64454;51.984;9.838;2023-08-17T05:10:15;21.00;99.90
75821;DHT22;64454;51.984;9.838;2023-08-17T05:12:42;21.00;99.90
75821;DHT22;64454;51.984;9.838;2023-08-17T05:15:09;21.00;99.90
75821;DHT22;64454;51.984;9.838;2023-08-17T05:17:36;21.10;99.90
75821;DHT22;64454;51.984;9.838;2023-08-17T05:20:04;21.20;99.90
75821;DHT22;64454;51.984;9.838;2023-08-17T05:22:34;21.20;99.90
75821;DHT22;64454;51.984;9.838;2023-08-17T05:25:02;21.30;99.90
75821;DHT22;64454;51.984;9.838;2023-08-17T05:27:29;21.40;99.90
75821;DHT22;64454;51.984;9.838;2023-08-17T05:29:56;21.40;99.90
75821;DHT22;64454;51.984;9.838;2023-08-17T05:32:23;21.50;99.90
75821;DHT22;64454;51.984;9.838;2023-08-17T05:34:50;21.50;99.90
75821;DHT22;64454;51.984;9.838;2023-08-17T05:37:17;21.50;99.90
75821;DHT22;64454;51.984;9.838;2023-08-17T05:39:45;21.50;99.90
75821;DHT22;64454;51.984;9.838;2023-08-17T05:42:12;21.60;99.90
75821;DHT22;64454;51.984;9.838;2023-08-17T05:44:39;21.60;99.90
75821;DHT22;64454;51.984;9.838;2023-08-17T05:47:05;21.60;99.90
75821;DHT22;64454;51.984;9.838;2023-08-17T05:49:32;21.60;99.90
75821;DHT22;64454;51.984;9.838;2023-08-17T05:51:59;21.70;99.90
75821;DHT22;64454;51.984;9.838;2023-08-17T05:54:26;21.60;99.90
75821;DHT22;64454;51.984;9.838;2023-08-17T05:56:54;21.50;99.90
75821;DHT22;64454;51.984;9.838;2023-08-17T05:59:21;21.50;99.90
75821;DHT22;64454;51.984;9.838;2023-08-17T06:01:48;21.60;99.90
75821;DHT22;64454;51.984;9.838;2023-08-17T06:04:17;21.60;99.90
75821;DHT22;64454;51.984;9.838;2023-08-17T06:06:46;21.60;99.90
75821;DHT22;64454;51.984;9.838;2023-08-17T06:09:14;21.50;99.90
75821;DHT22;64454;51.984;9.838;2023-08-17T06:11:42;21.50;99.90
75821;DHT22;64454;51.984;9.838;2023-08-17T06:14:10;21.40;99.90
75821;DHT22;64454;51.984;9.838;2023-08-17T06:16:37;21.20;99.90
75821;DHT22;64454;51.984;9.838;2023-08-17T06:19:04;21.30;99.90
75821;DHT22;64454;51.984;9.838;2023-08-17T06:21:31;21.30;99.90
75821;DHT22;64454;51.984;9.838;2023-08-17T06:23:58;21.40;99.90
75821;DHT22;64454;51.984;9.838;2023-08-17T06:26:25;21.40;99.90
75821;DHT22;64454;51.984;9.838;2023-08-17T06:28:52;21.30;99.90
75821;DHT22;64454;51.984;9.838;2023-08-17T06:31:20;21.40;99.90
75821;DHT22;64454;51.984;9.838;2023-08-17T06:33:48;21.50;99.90
75821;DHT22;64454;51.984;9.838;2023-08-17T06:36:15;21.50;99.90
75821;DHT22;64454;51.984;9.838;2023-08-17T06:38:42;21.50;99.90
75821;DHT22;64454;51.984;9.838;2023-08-17T06:41:09;21.60;99.90
75821;DHT22;64454;51.984;9.838;2023-08-17T06:43:36;21.60;99.90
75821;DHT22;64454;51.984;9.838;2023-08-17T06:46:02;21.80;99.90
75821;DHT22;64454;51.984;9.838;2023-08-17T06:48:31;21.80;99.90
75821;DHT22;64454;51.984;9.838;2023-08-17T06:50:58;21.90;99.90
75821;DHT22;64454;51.984;9.838;2023-08-17T06:53:24;22.00;99.90
75821;DHT22;64454;51.984;9.838;2023-08-17T06:55:51;22.00;99.90
75821;DHT22;64454;51.984;9.838;2023-08-17T06:58:18;22.00;99.90
75821;DHT22;64454;51.984;9.838;2023-08-17T07:00:45;21.90;99.90
75821;DHT22;64454;51.984;9.838;2023-08-17T07:03:12;21.90;99.90
75821;DHT22;64454;51.984;9.838;2023-08-17T07:05:40;21.90;99.90
75821;DHT22;64454;51.984;9.838;2023-08-17T07:08:07;21.80;99.90
75821;DHT22;64454;51.984;9.838;2023-08-17T07:10:34;21.70;99.90
75821;DHT22;64454;51.984;9.838;2023-08-17T07:13:01;21.80;99.90
75821;DHT22;64454;51.984;9.838;2023-08-17T07:15:28;21.60;99.90
75821;DHT22;64454;51.984;9.838;2023-08-17T07:17:55;21.60;99.90
75821;DHT22;64454;51.984;9.838;2023-08-17T07:20:22;21.60;99.90
75821;DHT22;64454;51.984;9.838;2023-08-17T07:22:51;21.60;99.90
75821;DHT22;64454;51.984;9.838;2023-08-17T07:25:17;21.70;99.90
75821;DHT22;64454;51.984;9.838;2023-08-17T07:27:44;21.80;99.90
75821;DHT22;64454;51.984;9.838;2023-08-17T07:30:12;21.90;99.90
75821;DHT22;64454;51.984;9.838;2023-08-17T07:32:39;22.00;99.90
75821;DHT22;64454;51.984;9.838;2023-08-17T07:35:07;22.00;99.90
75821;DHT22;64454;51.984;9.838;2023-08-17T07:37:34;22.00;99.90
75821;DHT22;64454;51.984;9.838;2023-08-17T07:40:02;22.10;99.90
75821;DHT22;64454;51.984;9.838;2023-08-17T07:42:30;22.10;99.90
75821;DHT22;64454;51.984;9.838;2023-08-17T07:44:57;22.10;99.90
75821;DHT22;64454;51.984;9.838;2023-08-17T07:47:24;22.20;99.90
75821;DHT22;64454;51.984;9.838;2023-08-17T07:49:51;22.30;99.90
75821;DHT22;64454;51.984;9.838;2023-08-17T07:52:18;22.40;99.90
75821;DHT22;64454;51.984;9.838;2023-08-17T07:54:45;22.40;99.90
75821;DHT22;64454;51.984;9.838;2023-08-17T07:57:14;22.30;99.90
75821;DHT22;64454;51.984;9.838;2023-08-17T07:59:40;22.30;99.90
75821;DHT22;64454;51.984;9.838;2023-08-17T08:02:07;22.20;99.90
75821;DHT22;64454;51.984;9.838;2023-08-17T08:04:34;22.30;99.90
75821;DHT22;64454;51.984;9.838;2023-08-17T08:07:01;22.20;99.90
75821;DHT22;64454;51.984;9.838;2023-08-17T08:09:28;22.20;99.90
75821;DHT22;64454;51.984;9.838;2023-08-17T08:11:55;22.10;99.90
75821;DHT22;64454;51.984;9.838;2023-08-17T08:14:23;22.30;99.90
75821;DHT22;64454;51.984;9.838;2023-08-17T08:16:50;22.30;99.90
75821;DHT22;64454;51.984;9.838;2023-08-17T08:19:19;22.20;99.90
75821;DHT22;64454;51.984;9.838;2023-08-17T08:21:47;22.20;99.90
75821;DHT22;64454;51.984;9.838;2023-08-17T08:24:14;22.30;99.90
75821;DHT22;64454;51.984;9.838;2023-08-17T08:26:43;22.30;99.90
75821;DHT22;64454;51.984;9.838;2023-08-17T08:29:10;22.20;99.90
75821;DHT22;64454;51.984;9.838;2023-08-17T08:31:38;22.40;99.90
75821;DHT22;64454;51.984;9.838;2023-08-17T08:34:05;22.40;99.90
75821;DHT22;64454;51.984;9.838;2023-08-17T08:36:32;22.60;99.90
75821;DHT22;64454;51.984;9.838;2023-08-17T08:38:59;22.60;99.90
75821;DHT22;64454;51.984;9.838;2023-08-17T08:41:26;22.60;99.90
75821;DHT22;64454;51.984;9.838;2023-08-17T08:43:54;22.60;99.90
75821;DHT22;64454;51.984;9.838;2023-08-17T08:46:23;22.70;99.90
75821;DHT22;64454;51.984;9.838;2023-08-17T08:48:54;22.60;99.90
75821;DHT22;64454;51.984;9.838;2023-08-17T08:51:25;22.80;99.90
75821;DHT22;64454;51.984;9.838;2023-08-17T08:54:00;22.80;99.90
75821;DHT22;64454;51.984;9.838;2023-08-17T08:56:31;22.80;99.90
75821;DHT22;64454;51.984;9.838;2023-08-17T08:59:01;22.80;99.90
75821;DHT22;64454;51.984;9.838;2023-08-17T09:01:30;22.80;99.90
75821;DHT22;64454;51.984;9.838;2023-08-17T09:04:00;22.90;99.90
75821;DHT22;64454;51.984;9.838;2023-08-17T09:06:29;22.90;99.90
75821;DHT22;64454;51.984;9.838;2023-08-17T09:08:57;23.00;99.90
75821;DHT22;64454;51.984;9.838;2023-08-17T09:11:26;23.10;99.90
75821;DHT22;64454;51.984;9.838;2023-08-17T09:13:53;23.30;99.90
75821;DHT22;64454;51.984;9.838;2023-08-17T09:16:20;23.50;99.90
75821;DHT22;64454;51.984;9.838;2023-08-17T09:18:47;23.80;99.90
75821;DHT22;64454;51.984;9.838;2023-08-17T09:21:22;24.20;99.90
75821;DHT22;64454;51.984;9.838;2023-08-17T09:23:53;24.40;99.90
75821;DHT22;64454;51.984;9.838;2023-08-17T09:26:22;24.70;99.90
75821;DHT22;64454;51.984;9.838;2023-08-17T09:28:50;24.80;99.90
75821;DHT22;64454;51.984;9.838;2023-08-17T09:31:20;24.90;88.90
75821;DHT22;64454;51.984;9.838;2023-08-17T09:33:49;25.00;38.60
75821;DHT22;64454;51.984;9.838;2023-08-17T09:36:22;25.10;22.70
75821;DHT22;64454;51.984;9.838;2023-08-17T09:38:50;25.20;22.60
75821;DHT22;64454;51.984;9.838;2023-08-17T09:41:18;25.30;22.90
75821;DHT22;64454;51.984;9.838;2023-08-17T09:43:46;25.30;8.10
75821;DHT22;64454;51.984;9.838;2023-08-17T09:46:14;25.40;1.00
75821;DHT22;64454;51.984;9.838;2023-08-17T09:48:43;25.40;1.00
75821;DHT22;64454;51.984;9.838;2023-08-17T09:51:14;25.60;1.00
75821;DHT22;64454;51.984;9.838;2023-08-17T09:53:43;25.90;1.00
75821;DHT22;64454;51.984;9.838;2023-08-17T09:56:10;26.10;1.00
75821;DHT22;64454;51.984;9.838;2023-08-17T09:58:39;25.80;1.00
75821;DHT22;64454;51.984;9.838;2023-08-17T10:01:08;25.70;1.00
75821;DHT22;64454;51.984;9.838;2023-08-17T10:03:39;25.60;1.00
75821;DHT22;64454;51.984;9.838;2023-08-17T10:06:10;25.30;1.00
75821;DHT22;64454;51.984;9.838;2023-08-17T10:08:45;25.30;1.00
75821;DHT22;64454;51.984;9.838;2023-08-17T10:11:16;25.10;5.30
75821;DHT22;64454;51.984;9.838;2023-08-17T10:13:51;25.00;54.50
75821;DHT22;64454;51.984;9.838;2023-08-17T10:16:22;24.70;32.50
75821;DHT22;64454;51.984;9.838;2023-08-17T10:18:55;24.60;76.70
75821;DHT22;64454;51.984;9.838;2023-08-17T10:21:36;24.50;99.90
75821;DHT22;64454;51.984;9.838;2023-08-17T10:24:08;24.30;99.90
75821;DHT22;64454;51.984;9.838;2023-08-17T10:26:36;24.20;99.90
75821;DHT22;64454;51.984;9.838;2023-08-17T10:29:04;24.10;99.90
75821;DHT22;64454;51.984;9.838;2023-08-17T10:31:34;23.90;99.90
75821;DHT22;64454;51.984;9.838;2023-08-17T10:34:02;23.90;99.90
75821;DHT22;64454;51.984;9.838;2023-08-17T10:36:31;23.80;99.90
75821;DHT22;64454;51.984;9.838;2023-08-17T10:39:19;23.70;99.90
75821;DHT22;64454;51.984;9.838;2023-08-17T10:41:49;23.60;99.90
75821;DHT22;64454;51.984;9.838;2023-08-17T10:44:33;23.40;99.90
75821;DHT22;64454;51.984;9.838;2023-08-17T10:47:19;23.40;99.90
75821;DHT22;64454;51.984;9.838;2023-08-17T10:49:50;23.40;99.90
75821;DHT22;64454;51.984;9.838;2023-08-17T10:52:29;23.30;99.90
75821;DHT22;64454;51.984;9.838;2023-08-17T10:55:03;23.40;99.90
75821;DHT22;64454;51.984;9.838;2023-08-17T10:57:35;23.20;99.90
75821;DHT22;64454;51.984;9.838;2023-08-17T11:00:17;23.10;99.90
75821;DHT22;64454;51.984;9.838;2023-08-17T11:02:53;23.00;99.90
75821;DHT22;64454;51.984;9.838;2023-08-17T11:05:42;23.10;99.90
75821;DHT22;64454;51.984;9.838;2023-08-17T11:08:11;23.00;99.90
75821;DHT22;64454;51.984;9.838;2023-08-17T11:10:57;22.80;99.90
75821;DHT22;64454;51.984;9.838;2023-08-17T11:13:27;22.70;99.90
75821;DHT22;64454;51.984;9.838;2023-08-17T11:15:58;22.80;99.90
75821;DHT22;64454;51.984;9.838;2023-08-17T11:18:26;22.90;99.90
75821;DHT22;64454;51.984;9.838;2023-08-17T11:20:54;22.90;99.90
75821;DHT22;64454;51.984;9.838;2023-08-17T11:23:22;23.00;99.90
75821;DHT22;64454;51.984;9.838;2023-08-17T11:25:52;23.00;99.90
75821;DHT22;64454;51.984;9.838;2023-08-17T11:28:21;22.90;99.90
75821;DHT22;64454;51.984;9.838;2023-08-17T11:30:56;22.90;99.90
75821;DHT22;64454;51.984;9.838;2023-08-17T11:33:25;22.80;99.90
75821;DHT22;64454;51.984;9.838;2023-08-17T11:35:54;23.00;99.90
75821;DHT22;64454;51.984;9.838;2023-08-17T11:38:21;23.20;99.90
75821;DHT22;64454;51.984;9.838;2023-08-17T11:40:50;23.20;99.90
75821;DHT22;64454;51.984;9.838;2023-08-17T11:43:18;23.30;99.90
75821;DHT22;64454;51.984;9.838;2023-08-17T11:45:46;23.40;99.90
75821;DHT22;64454;51.984;9.838;2023-08-17T11:48:13;23.60;99.90
75821;DHT22;64454;51.984;9.838;2023-08-17T11:50:42;23.60;99.90
75821;DHT22;64454;51.984;9.838;2023-08-17T11:53:09;23.50;99.90
75821;DHT22;64454;51.984;9.838;2023-08-17T11:55:36;23.70;99.90
75821;DHT22;64454;51.984;9.838;2023-08-17T11:58:04;23.60;99.90
75821;DHT22;64454;51.984;9.838;2023-08-17T12:00:35;23.70;99.90
75821;DHT22;64454;51.984;9.838;2023-08-17T12:03:03;23.80;99.90
75821;DHT22;64454;51.984;9.838;2023-08-17T12:05:31;24.00;99.90
75821;DHT22;64454;51.984;9.838;2023-08-17T12:07:59;24.20;99.90
75821;DHT22;64454;51.984;9.838;2023-08-17T12:10:27;24.10;99.90
75821;DHT22;64454;51.984;9.838;2023-08-17T12:12:57;24.20;99.90
75821;DHT22;64454;51.984;9.838;2023-08-17T12:15:30;24.30;91.30
75821;DHT22;64454;51.984;9.838;2023-08-17T12:17:59;24.20;62.80
75821;DHT22;64454;51.984;9.838;2023-08-17T12:20:28;24.20;63.10
75821;DHT22;64454;51.984;9.838;2023-08-17T12:22:57;24.10;40.00
75821;DHT22;64454;51.984;9.838;2023-08-17T12:25:25;24.10;45.60
75821;DHT22;64454;51.984;9.838;2023-08-17T12:27:53;23.80;52.50
75821;DHT22;64454;51.984;9.838;2023-08-17T12:30:28;23.70;47.70
75821;DHT22;64454;51.984;9.838;2023-08-17T12:32:57;23.20;99.90
75821;DHT22;64454;51.984;9.838;2023-08-17T12:35:24;23.00;99.90
75821;DHT22;64454;51.984;9.838;2023-08-17T12:37:52;23.00;99.90
75821;DHT22;64454;51.984;9.838;2023-08-17T12:40:19;22.90;99.90
75821;DHT22;64454;51.984;9.838;2023-08-17T12:42:47;22.80;99.90
75821;DHT22;64454;51.984;9.838;2023-08-17T12:45:15;22.60;99.90
75821;DHT22;64454;51.984;9.838;2023-08-17T12:47:44;22.40;99.90
75821;DHT22;64454;51.984;9.838;2023-08-17T12:50:11;21.90;99.90
75821;DHT22;64454;51.984;9.838;2023-08-17T12:52:37;21.70;99.90
75821;DHT22;64454;51.984;9.838;2023-08-17T12:55:05;21.70;99.90
75821;DHT22;64454;51.984;9.838;2023-08-17T12:57:32;21.90;99.90
75821;DHT22;64454;51.984;9.838;2023-08-17T12:59:59;21.90;99.90
75821;DHT22;64454;51.984;9.838;2023-08-17T13:02:26;22.10;99.90
75821;DHT22;64454;51.984;9.838;2023-08-17T13:04:54;22.30;99.90
75821;DHT22;64454;51.984;9.838;2023-08-17T13:07:21;22.00;99.90
75821;DHT22;64454;51.984;9.838;2023-08-17T13:09:48;21.90;99.90
75821;DHT22;64454;51.984;9.838;2023-08-17T13:12:15;21.80;99.90
75821;DHT22;64454;51.984;9.838;2023-08-17T13:14:42;21.40;99.90
75821;DHT22;64454;51.984;9.838;2023-08-17T13:17:09;21.40;99.90
75821;DHT22;64454;51.984;9.838;2023-08-17T13:19:36;21.10;99.90
75821;DHT22;64454;51.984;9.838;2023-08-17T13:22:04;21.20;99.90
75821;DHT22;64454;51.984;9.838;2023-08-17T13:24:31;20.90;99.90
75821;DHT22;64454;51.984;9.838;2023-08-17T13:26:58;20.90;99.90
75821;DHT22;64454;51.984;9.838;2023-08-17T13:29:25;21.00;99.90
75821;DHT22;64454;51.984;9.838;2023-08-17T13:31:52;20.80;99.90
75821;DHT22;64454;51.984;9.838;2023-08-17T13:34:20;20.90;99.90
75821;DHT22;64454;51.984;9.838;2023-08-17T13:36:47;20.80;99.90
75821;DHT22;64454;51.984;9.838;2023-08-17T13:39:17;20.90;99.90
75821;DHT22;64454;51.984;9.838;2023-08-17T13:41:45;20.80;99.90
75821;DHT22;64454;51.984;9.838;2023-08-17T13:44:11;20.90;99.90
75821;DHT22;64454;51.984;9.838;2023-08-17T13:46:39;20.80;99.90
75821;DHT22;64454;51.984;9.838;2023-08-17T13:49:06;20.80;99.90
75821;DHT22;64454;51.984;9.838;2023-08-17T13:51:33;20.60;99.90
75821;DHT22;64454;51.984;9.838;2023-08-17T13:54:00;20.70;99.90
75821;DHT22;64454;51.984;9.838;2023-08-17T13:56:28;20.60;99.90
75821;DHT22;64454;51.984;9.838;2023-08-17T13:58:55;20.50;99.90
75821;DHT22;64454;51.984;9.838;2023-08-17T14:01:22;20.50;99.90
75821;DHT22;64454;51.984;9.838;2023-08-17T14:03:49;20.50;99.90
75821;DHT22;64454;51.984;9.838;2023-08-17T14:06:16;20.30;99.90
75821;DHT22;64454;51.984;9.838;2023-08-17T14:08:42;20.20;99.90
75821;DHT22;64454;51.984;9.838;2023-08-17T14:11:09;20.30;99.90
75821;DHT22;64454;51.984;9.838;2023-08-17T14:13:38;20.40;99.90
75821;DHT22;64454;51.984;9.838;2023-08-17T14:16:05;20.30;99.90
75821;DHT22;64454;51.984;9.838;2023-08-17T14:18:32;20.30;99.90
75821;DHT22;64454;51.984;9.838;2023-08-17T14:20:59;20.30;99.90
75821;DHT22;64454;51.984;9.838;2023-08-17T14:23:26;20.20;99.90
75821;DHT22;64454;51.984;9.838;2023-08-17T14:25:53;20.20;99.90
75821;DHT22;64454;51.984;9.838;2023-08-17T14:28:19;20.30;99.90
75821;DHT22;64454;51.984;9.838;2023-08-17T14:30:48;20.50;99.90
75821;DHT22;64454;51.984;9.838;2023-08-17T14:33:15;20.50;99.90
75821;DHT22;64454;51.984;9.838;2023-08-17T14:35:42;20.60;99.90
75821;DHT22;64454;51.984;9.838;2023-08-17T14:38:09;20.60;99.90
75821;DHT22;64454;51.984;9.838;2023-08-17T14:40:41;20.50;99.90
75821;DHT22;64454;51.984;9.838;2023-08-17T14:43:09;20.60;99.90
75821;DHT22;64454;51.984;9.838;2023-08-17T14:45:37;20.60;99.90
75821;DHT22;64454;51.984;9.838;2023-08-17T14:48:06;20.60;99.90
75821;DHT22;64454;51.984;9.838;2023-08-17T14:50:33;20.70;99.90
75821;DHT22;64454;51.984;9.838;2023-08-17T14:53:00;20.80;99.90
75821;DHT22;64454;51.984;9.838;2023-08-17T14:55:29;20.80;99.90
75821;DHT22;64454;51.984;9.838;2023-08-17T14:57:55;21.00;99.90
75821;DHT22;64454;51.984;9.838;2023-08-17T15:00:23;21.00;99.90
75821;DHT22;64454;51.984;9.838;2023-08-17T15:02:50;21.00;99.90
75821;DHT22;64454;51.984;9.838;2023-08-17T15:05:18;21.00;99.90
75821;DHT22;64454;51.984;9.838;2023-08-17T15:07:45;21.00;99.90
75821;DHT22;64454;51.984;9.838;2023-08-17T15:10:12;20.80;99.90
75821;DHT22;64454;51.984;9.838;2023-08-17T15:12:39;20.60;99.90
75821;DHT22;64454;51.984;9.838;2023-08-17T15:15:07;20.50;99.90
75821;DHT22;64454;51.984;9.838;2023-08-17T15:17:35;20.50;99.90
75821;DHT22;64454;51.984;9.838;2023-08-17T15:20:03;20.70;99.90
75821;DHT22;64454;51.984;9.838;2023-08-17T15:22:32;20.70;99.90
75821;DHT22;64454;51.984;9.838;2023-08-17T15:24:59;20.80;99.90
75821;DHT22;64454;51.984;9.838;2023-08-17T15:27:27;20.70;99.90
75821;DHT22;64454;51.984;9.838;2023-08-17T15:29:53;20.50;99.90
75821;DHT22;64454;51.984;9.838;2023-08-17T15:32:20;20.50;99.90
75821;DHT22;64454;51.984;9.838;2023-08-17T15:34:47;20.50;99.90
75821;DHT22;64454;51.984;9.838;2023-08-17T15:37:14;20.60;99.90
75821;DHT22;64454;51.984;9.838;2023-08-17T15:39:42;20.80;99.90